sensor_id;sensor_type;location;lat;lon;timestamp;P1;durP1;ratioP1;P2;durP2;ratioP2
15406;SDS011;7802;51.568;6.364;2022-11-25T19:10:35;8.50;;;5.43;;
15406;SDS011;7802;51.568;6.364;2022-11-25T19:13:24;10.53;;;5.57;;
15406;SDS011;7802;51.568;6.364;2022-11-25T19:16:14;12.30;;;6.33;;
15406;SDS011;7802;51.568;6.364;2022-11-25T19:19:18;10.77;;;5.77;;
15406;SDS011;7802;51.568;6.364;2022-11-25T19:22:08;13.70;;;6.57;;
15406;SDS011;7802;51.568;6.364;2022-11-25T19:24:57;14.97;;;6.17;;
15406;SDS011;7802;51.568;6.364;2022-11-25T19:27:46;14.83;;;6.50;;
15406;SDS011;7802;51.568;6.364;2022-11-25T19:30:36;15.07;;;6.67;;
15406;SDS011;7802;51.568;6.364;2022-11-25T19:36:45;18.40;;;7.10;;
15406;SDS011;7802;51.568;6.364;2022-11-25T19:39:33;15.30;;;6.97;;
15406;SDS011;7802;51.568;6.364;2022-11-25T19:42:22;15.90;;;6.60;;
15406;SDS011;7802;51.568;6.364;2022-11-25T19:45:11;12.97;;;7.10;;
15406;SDS011;7802;51.568;6.364;2022-11-25T19:48:00;12.80;;;6.17;;
15406;SDS011;7802;51.568;6.364;2022-11-25T19:55:20;13.87;;;5.60;;
15406;SDS011;7802;51.568;6.364;2022-11-25T19:58:56;13.53;;;6.77;;
15406;SDS011;7802;51.568;6.364;2022-11-25T20:05:02;13.30;;;6.97;;
15406;SDS011;7802;51.568;6.364;2022-11-25T20:07:57;13.63;;;6.37;;
15406;SDS011;7802;51.568;6.364;2022-11-25T20:10:45;16.90;;;7.10;;
15406;SDS011;7802;51.568;6.364;2022-11-25T20:13:32;15.47;;;7.70;;
15406;SDS011;7802;51.568;6.364;2022-11-25T20:16:21;12.67;;;7.60;;
15406;SDS011;7802;51.568;6.364;2022-11-25T20:19:13;11.00;;;7.10;;
15406;SDS011;7802;51.568;6.364;2022-11-25T20:22:02;13.00;;;6.87;;
15406;SDS011;7802;51.568;6.364;2022-11-25T20:24:52;19.87;;;7.70;;
15406;SDS011;7802;51.568;6.364;2022-11-25T20:27:40;15.10;;;7.17;;
15406;SDS011;7802;51.568;6.364;2022-11-25T20:33:44;16.30;;;7.60;;
15406;SDS011;7802;51.568;6.364;2022-11-25T20:36:37;16.47;;;8.40;;
15406;SDS011;7802;51.568;6.364;2022-11-25T20:39:26;16.23;;;8.10;;
15406;SDS011;7802;51.568;6.364;2022-11-25T20:52:37;15.17;;;8.33;;
15406;SDS011;7802;51.568;6.364;2022-11-25T20:55:24;23.67;;;10.93;;
15406;SDS011;7802;51.568;6.364;2022-11-25T20:58:16;25.67;;;11.43;;
15406;SDS011;7802;51.568;6.364;2022-11-25T21:01:05;19.80;;;9.50;;
15406;SDS011;7802;51.568;6.364;2022-11-25T21:03:52;30.73;;;11.73;;
15406;SDS011;7802;51.568;6.364;2022-11-25T21:06:39;25.43;;;11.00;;
15406;SDS011;7802;51.568;6.364;2022-11-25T21:09:29;25.10;;;10.10;;
15406;SDS011;7802;51.568;6.364;2022-11-25T21:12:18;22.00;;;10.30;;
15406;SDS011;7802;51.568;6.364;2022-11-25T21:15:10;21.43;;;9.97;;
15406;SDS011;7802;51.568;6.364;2022-11-25T21:17:58;23.07;;;11.03;;
15406;SDS011;7802;51.568;6.364;2022-11-25T21:20:45;32.10;;;12.40;;
15406;SDS011;7802;51.568;6.364;2022-11-25T21:27:00;25.13;;;11.20;;
15406;SDS011;7802;51.568;6.364;2022-11-25T21:33:00;20.47;;;10.10;;
15406;SDS011;7802;51.568;6.364;2022-11-25T21:35:47;18.40;;;10.53;;
15406;SDS011;7802;51.568;6.364;2022-11-25T21:41:29;20.13;;;9.73;;
15406;SDS011;7802;51.568;6.364;2022-11-25T21:44:19;24.47;;;10.00;;
15406;SDS011;7802;51.568;6.364;2022-11-25T21:47:12;21.70;;;10.87;;
15406;SDS011;7802;51.568;6.364;2022-11-25T21:50:01;23.97;;;10.80;;
15406;SDS011;7802;51.568;6.364;2022-11-25T21:52:49;27.87;;;12.07;;
15406;SDS011;7802;51.568;6.364;2022-11-25T21:55:36;20.07;;;10.20;;
15406;SDS011;7802;51.568;6.364;2022-11-25T21:58:24;22.53;;;10.67;;
15406;SDS011;7802;51.568;6.364;2022-11-25T22:01:14;27.20;;;12.37;;
15406;SDS011;7802;51.568;6.364;2022-11-25T22:04:02;21.87;;;11.50;;
15406;SDS011;7802;51.568;6.364;2022-11-25T22:06:50;23.73;;;12.03;;
15406;SDS011;7802;51.568;6.364;2022-11-25T22:09:37;28.97;;;12.50;;
15406;SDS011;7802;51.568;6.364;2022-11-25T22:12:25;28.27;;;13.77;;
15406;SDS011;7802;51.568;6.364;2022-11-25T22:15:15;26.80;;;12.57;;
15406;SDS011;7802;51.568;6.364;2022-11-25T22:18:07;26.47;;;13.00;;
15406;SDS011;7802;51.568;6.364;2022-11-25T22:21:03;23.97;;;12.03;;
15406;SDS011;7802;51.568;6.364;2022-11-25T22:23:50;25.47;;;11.97;;
15406;SDS011;7802;51.568;6.364;2022-11-25T22:26:37;23.10;;;11.13;;
15406;SDS011;7802;51.568;6.364;2022-11-25T22:29:26;20.47;;;10.57;;
15406;SDS011;7802;51.568;6.364;2022-11-25T22:32:18;21.00;;;9.43;;
15406;SDS011;7802;51.568;6.364;2022-11-25T22:35:11;20.67;;;10.70;;
15406;SDS011;7802;51.568;6.364;2022-11-25T22:37:59;16.77;;;10.67;;
15406;SDS011;7802;51.568;6.364;2022-11-25T22:40:48;21.00;;;10.73;;
15406;SDS011;7802;51.568;6.364;2022-11-25T22:43:38;21.40;;;10.40;;
15406;SDS011;7802;51.568;6.364;2022-11-25T22:46:31;17.57;;;9.83;;
15406;SDS011;7802;51.568;6.364;2022-11-25T22:49:25;19.83;;;10.07;;
15406;SDS011;7802;51.568;6.364;2022-11-25T22:52:18;23.03;;;10.33;;
15406;SDS011;7802;51.568;6.364;2022-11-25T22:55:13;20.50;;;10.83;;
15406;SDS011;7802;51.568;6.364;2022-11-25T22:58:02;22.27;;;10.47;;
15406;SDS011;7802;51.568;6.364;2022-11-25T23:00:49;21.40;;;9.27;;
15406;SDS011;7802;51.568;6.364;2022-11-25T23:03:37;25.67;;;11.30;;
15406;SDS011;7802;51.568;6.364;2022-11-25T23:06:24;19.87;;;10.23;;
15406;SDS011;7802;51.568;6.364;2022-11-25T23:09:13;22.70;;;10.07;;
15406;SDS011;7802;51.568;6.364;2022-11-25T23:12:01;15.37;;;9.70;;
15406;SDS011;7802;51.568;6.364;2022-11-25T23:14:49;18.00;;;10.73;;
15406;SDS011;7802;51.568;6.364;2022-11-25T23:17:35;23.90;;;11.27;;
15406;SDS011;7802;51.568;6.364;2022-11-25T23:20:23;21.30;;;11.10;;
15406;SDS011;7802;51.568;6.364;2022-11-25T23:23:15;20.23;;;10.83;;
15406;SDS011;7802;51.568;6.364;2022-11-25T23:26:05;20.07;;;10.27;;
15406;SDS011;7802;51.568;6.364;2022-11-25T23:28:54;19.13;;;10.37;;
15406;SDS011;7802;51.568;6.364;2022-11-25T23:31:41;19.00;;;10.90;;
15406;SDS011;7802;51.568;6.364;2022-11-25T23:34:28;24.00;;;10.53;;
15406;SDS011;7802;51.568;6.364;2022-11-25T23:37:24;23.50;;;11.50;;
15406;SDS011;7802;51.568;6.364;2022-11-25T23:40:16;19.43;;;11.10;;
15406;SDS011;7802;51.568;6.364;2022-11-25T23:43:07;19.77;;;10.53;;
15406;SDS011;7802;51.568;6.364;2022-11-25T23:45:57;22.47;;;11.90;;
15406;SDS011;7802;51.568;6.364;2022-11-25T23:48:44;22.20;;;11.93;;
15406;SDS011;7802;51.568;6.364;2022-11-25T23:51:36;15.83;;;10.57;;
15406;SDS011;7802;51.568;6.364;2022-11-25T23:54:24;20.47;;;11.60;;
15406;SDS011;7802;51.568;6.364;2022-11-25T23:57:28;21.80;;;12.27;;
